Terminal Aerodrome Forecast
Issued by NWS

Home | Current Version | Previous Version | Text Only | Print | Product List | Glossary On
Versions: 1 2 3 4 5 6 7 8 9 10 11 12 13 14
809
FTUS46 KLOX 280520
TAFLGB
TAF
KLGB 280520Z 2806/2906 VRB03KT P6SM SKC
     FM281200 14004KT 5SM BR BKN005
     FM281600 19007KT P6SM FEW007 SCT180
     FM282300 30009KT P6SM SKC
     FM290400 VRB03KT P6SM SKC=

USA.gov is the U.S. government's official web portal to all federal, state and local government web resources and services.